Time;durP1;ratioP1;P1;durP2;ratioP2;P2;SDS_P1;SDS_P2;PMS_P1;PMS_P2;Temp;Humidity;BMP_temperature;BMP_pressure;BME280_temperature;BME280_humidity;BME280_pressure;Samples;Min_cycle;Max_cycle;Signal;HPM_P1;HPM_P2
2022/10/01 00:00:26;;;;;;;;;;;12.70;99.90;;;;;;5056992;28;19908;-65
2022/10/01 00:02:53;;;;;;;;;;;12.80;99.90;;;;;;5075042;28;19908;-65
2022/10/01 00:05:18;;;;;;;;;;;12.80;99.90;;;;;;5075002;28;19909;-65
2022/10/01 00:07:44;;;;;;;;;;;12.80;99.90;;;;;;5074673;28;20011;-65
2022/10/01 00:10:11;;;;;;;;;;;12.80;99.90;;;;;;5073860;28;19909;-65
2022/10/01 00:12:37;;;;;;;;;;;12.90;99.90;;;;;;5074684;28;19908;-65
2022/10/01 00:15:07;;;;;;;;;;;12.90;99.90;;;;;;5074867;28;20416;-65
2022/10/01 00:17:32;;;;;;;;;;;12.90;99.90;;;;;;5074831;28;19916;-65
2022/10/01 00:19:58;;;;;;;;;;;12.80;99.90;;;;;;5074736;28;20274;-65
2022/10/01 00:22:23;;;;;;;;;;;12.80;99.90;;;;;;5074441;28;19916;-65
2022/10/01 00:24:49;;;;;;;;;;;12.80;99.90;;;;;;5074655;28;19981;-65
2022/10/01 00:27:14;;;;;;;;;;;12.80;99.90;;;;;;5074094;28;19920;-65
2022/10/01 00:29:40;;;;;;;;;;;12.80;99.90;;;;;;5074570;28;19909;-65
2022/10/01 00:32:05;;;;;;;;;;;12.80;99.90;;;;;;5074533;28;19916;-66
2022/10/01 00:34:30;;;;;;;;;;;12.80;99.90;;;;;;5074184;28;20264;-65
2022/10/01 00:36:56;;;;;;;;;;;12.80;99.90;;;;;;5074422;28;20116;-65
2022/10/01 00:39:22;;;;;;;;;;;12.80;99.90;;;;;;5074094;28;19916;-66
2022/10/01 00:41:48;;;;;;;;;;;12.80;99.90;;;;;;5056332;28;19913;-65
2022/10/01 00:44:34;;;;;;;;;;;12.80;99.90;;;;;;5074327;28;20377;-65
2022/10/01 00:47:02;;;;;;;;;;;12.90;99.90;;;;;;5073785;28;19920;-65
2022/10/01 00:49:28;;;;;;;;;;;12.80;99.90;;;;;;5074249;28;20256;-65
2022/10/01 00:51:57;;;;;;;;;;;12.90;99.90;;;;;;5073937;28;19908;-65
2022/10/01 00:54:29;;;;;;;;;;;12.90;99.90;;;;;;5074156;28;19916;-65
2022/10/01 00:56:56;;;;;;;;;;;12.90;99.90;;;;;;5074126;28;20367;-65
2022/10/01 00:59:21;;;;;;;;;;;12.90;99.90;;;;;;5055915;28;19909;-65
2022/10/01 01:01:47;;;;;;;;;;;13.00;99.90;;;;;;5073762;28;19919;-65
2022/10/01 01:04:15;;;;;;;;;;;13.00;99.90;;;;;;5074009;28;19916;-65
2022/10/01 01:06:43;;;;;;;;;;;13.00;99.90;;;;;;5073550;28;20033;-65
2022/10/01 01:09:08;;;;;;;;;;;13.10;99.90;;;;;;5073967;28;20327;-65
2022/10/01 01:11:42;;;;;;;;;;;13.10;99.90;;;;;;5073897;28;19908;-65
2022/10/01 01:14:13;;;;;;;;;;;13.20;99.90;;;;;;5073928;28;20003;-65
2022/10/01 01:16:44;;;;;;;;;;;13.20;99.90;;;;;;5073881;28;20397;-65
2022/10/01 01:19:29;;;;;;;;;;;13.30;99.90;;;;;;5073614;28;19908;-65
2022/10/01 01:21:57;;;;;;;;;;;13.20;99.90;;;;;;5073344;28;19909;-65
2022/10/01 01:27:30;;;;;;;;;;;13.30;99.90;;;;;;5091268;27;19934;-65
2022/10/01 01:30:12;;;;;;;;;;;13.20;99.90;;;;;;5091151;28;19978;-65
2022/10/01 01:32:41;;;;;;;;;;;13.20;99.90;;;;;;5091376;28;19930;-65
2022/10/01 01:35:09;;;;;;;;;;;13.20;99.90;;;;;;5091048;28;20313;-65
2022/10/01 01:37:38;;;;;;;;;;;13.20;99.90;;;;;;5091052;28;19910;-65
2022/10/01 01:40:06;;;;;;;;;;;13.20;99.90;;;;;;5091198;28;19974;-65
2022/10/01 01:42:36;;;;;;;;;;;13.20;99.90;;;;;;5090904;28;20290;-66
2022/10/01 01:45:02;;;;;;;;;;;13.10;99.90;;;;;;5090778;28;20399;-66
2022/10/01 01:47:29;;;;;;;;;;;12.90;99.90;;;;;;5091086;28;19947;-65
2022/10/01 01:49:56;;;;;;;;;;;12.80;99.90;;;;;;5091003;28;19912;-65
2022/10/01 01:52:21;;;;;;;;;;;12.70;99.90;;;;;;5090993;28;19914;-65
2022/10/01 01:54:48;;;;;;;;;;;12.50;99.90;;;;;;5090662;28;19908;-65
2022/10/01 01:57:15;;;;;;;;;;;12.40;99.90;;;;;;5090606;28;19908;-65
2022/10/01 01:59:41;;;;;;;;;;;12.40;99.90;;;;;;5090668;28;19920;-65
2022/10/01 02:02:10;;;;;;;;;;;12.20;99.90;;;;;;5090883;28;19995;-65
2022/10/01 02:04:38;;;;;;;;;;;12.10;99.90;;;;;;5090798;28;19909;-65
2022/10/01 02:07:24;;;;;;;;;;;12.00;99.90;;;;;;5090686;28;20321;-65
2022/10/01 02:09:53;;;;;;;;;;;11.90;99.90;;;;;;5090493;28;20466;-65
2022/10/01 02:12:23;;;;;;;;;;;11.80;99.90;;;;;;5090325;28;19909;-65
2022/10/01 02:17:31;;;;;;;;;;;11.60;99.90;;;;;;5071165;28;19913;-65
2022/10/01 02:20:00;;;;;;;;;;;11.60;99.90;;;;;;5070888;28;19913;-65
2022/10/01 02:22:41;;;;;;;;;;;11.50;99.90;;;;;;5070899;28;19916;-65
2022/10/01 02:25:08;;;;;;;;;;;11.40;99.90;;;;;;5070844;28;19999;-65
2022/10/01 02:27:54;;;;;;;;;;;11.50;99.90;;;;;;5070904;28;20434;-65
2022/10/01 02:30:20;;;;;;;;;;;11.40;99.90;;;;;;5070704;28;19909;-65
2022/10/01 02:32:48;;;;;;;;;;;11.40;99.90;;;;;;5070709;28;20390;-65
2022/10/01 02:35:15;;;;;;;;;;;11.30;99.90;;;;;;5070584;28;19913;-64
2022/10/01 02:37:43;;;;;;;;;;;11.30;99.90;;;;;;5070861;28;19999;-65
2022/10/01 02:40:14;;;;;;;;;;;11.30;99.90;;;;;;5070783;28;20007;-65
2022/10/01 02:42:42;;;;;;;;;;;11.20;99.90;;;;;;5070760;28;19920;-65
2022/10/01 02:45:08;;;;;;;;;;;11.10;99.90;;;;;;5070710;28;19909;-65
2022/10/01 02:47:36;;;;;;;;;;;11.20;99.90;;;;;;5070502;28;20031;-65
2022/10/01 02:50:03;;;;;;;;;;;11.10;99.90;;;;;;5070567;28;20003;-65
2022/10/01 02:52:33;;;;;;;;;;;11.10;99.90;;;;;;5086106;28;20402;-65
2022/10/01 02:55:02;;;;;;;;;;;11.00;99.90;;;;;;5070132;28;19913;-65
2022/10/01 02:57:28;;;;;;;;;;;11.00;99.90;;;;;;5070577;28;20279;-65
2022/10/01 02:59:58;;;;;;;;;;;11.00;99.90;;;;;;5070461;28;20363;-66
2022/10/01 03:02:26;;;;;;;;;;;11.00;99.90;;;;;;5070368;28;20326;-65
2022/10/01 03:04:53;;;;;;;;;;;11.00;99.90;;;;;;5070289;28;19909;-65
2022/10/01 03:07:19;;;;;;;;;;;10.90;99.90;;;;;;5070098;28;20260;-65
2022/10/01 03:09:44;;;;;;;;;;;10.90;99.90;;;;;;5070085;28;19909;-66
2022/10/01 03:12:10;;;;;;;;;;;10.90;99.90;;;;;;5070187;28;19931;-65
2022/10/01 03:14:38;;;;;;;;;;;10.90;99.90;;;;;;5069779;28;19915;-65
2022/10/01 03:17:04;;;;;;;;;;;10.90;99.90;;;;;;5086937;28;20413;-65
2022/10/01 03:19:29;;;;;;;;;;;10.90;99.90;;;;;;5090256;28;19908;-65
2022/10/01 03:21:55;;;;;;;;;;;10.90;99.90;;;;;;5089975;28;19948;-64
2022/10/01 03:24:21;;;;;;;;;;;10.80;99.90;;;;;;5071676;28;19909;-65
2022/10/01 03:26:46;;;;;;;;;;;10.80;99.90;;;;;;5088315;28;20255;-65
2022/10/01 03:29:12;;;;;;;;;;;10.80;99.90;;;;;;5076150;28;20040;-65
2022/10/01 03:31:37;;;;;;;;;;;10.80;99.90;;;;;;5076565;28;19908;-64
2022/10/01 03:34:03;;;;;;;;;;;10.80;99.90;;;;;;5076332;28;19909;-64
2022/10/01 03:36:29;;;;;;;;;;;10.80;99.90;;;;;;5058183;28;19926;-64
2022/10/01 03:38:55;;;;;;;;;;;10.80;99.90;;;;;;5076462;28;19914;-65
2022/10/01 03:41:20;;;;;;;;;;;10.80;99.90;;;;;;5076479;28;20389;-64
2022/10/01 03:43:46;;;;;;;;;;;10.80;99.90;;;;;;5076179;28;19999;-65
2022/10/01 03:46:11;;;;;;;;;;;10.80;99.90;;;;;;5076050;28;19909;-64
2022/10/01 03:48:36;;;;;;;;;;;10.80;99.90;;;;;;5076314;28;19951;-64
2022/10/01 03:51:02;;;;;;;;;;;10.80;99.90;;;;;;5075928;28;19909;-64
2022/10/01 03:53:28;;;;;;;;;;;10.90;99.90;;;;;;5076203;28;19913;-65
2022/10/01 03:55:53;;;;;;;;;;;11.00;99.90;;;;;;5076056;28;19944;-64
2022/10/01 03:58:19;;;;;;;;;;;11.00;99.90;;;;;;5076035;28;19912;-64
2022/10/01 04:00:45;;;;;;;;;;;11.00;99.90;;;;;;5076024;28;19915;-65
2022/10/01 04:03:11;;;;;;;;;;;10.90;99.90;;;;;;5075989;28;20316;-64
2022/10/01 04:05:37;;;;;;;;;;;10.90;99.90;;;;;;5075704;28;19916;-64
2022/10/01 04:08:02;;;;;;;;;;;10.90;99.90;;;;;;5075917;28;19909;-64
2022/10/01 04:10:27;;;;;;;;;;;10.90;99.90;;;;;;5075608;28;19909;-64
2022/10/01 04:12:54;;;;;;;;;;;10.90;99.90;;;;;;5075840;28;19915;-65
2022/10/01 04:15:20;;;;;;;;;;;10.90;99.90;;;;;;5075433;28;19924;-64
2022/10/01 04:17:46;;;;;;;;;;;10.90;99.90;;;;;;5075725;28;19909;-64
2022/10/01 04:20:12;;;;;;;;;;;10.90;99.90;;;;;;5075649;28;19915;-65
2022/10/01 04:22:39;;;;;;;;;;;10.90;99.90;;;;;;5075361;28;19951;-64
2022/10/01 04:25:05;;;;;;;;;;;10.90;99.90;;;;;;5075608;28;20394;-64
2022/10/01 04:27:31;;;;;;;;;;;10.90;99.90;;;;;;5075217;28;19916;-64
2022/10/01 04:29:56;;;;;;;;;;;10.90;99.90;;;;;;5075187;28;19908;-65
2022/10/01 04:32:21;;;;;;;;;;;10.90;99.90;;;;;;5075461;28;19908;-65
2022/10/01 04:34:54;;;;;;;;;;;10.90;99.90;;;;;;5075108;28;19908;-64
2022/10/01 04:37:20;;;;;;;;;;;10.90;99.90;;;;;;5075215;28;19913;-64
2022/10/01 04:39:46;;;;;;;;;;;11.00;99.90;;;;;;5056036;28;19916;-64
2022/10/01 04:42:13;;;;;;;;;;;11.00;99.90;;;;;;5075192;28;19908;-64
2022/10/01 04:44:38;;;;;;;;;;;11.00;99.90;;;;;;5075162;28;19908;-64
2022/10/01 04:47:04;;;;;;;;;;;11.00;99.90;;;;;;5075187;28;19915;-64
2022/10/01 04:49:31;;;;;;;;;;;11.00;99.90;;;;;;5074875;28;20282;-64
2022/10/01 04:51:57;;;;;;;;;;;11.00;99.90;;;;;;5074754;28;19967;-64
2022/10/01 04:54:22;;;;;;;;;;;11.20;99.90;;;;;;5074990;28;19915;-64
2022/10/01 04:56:48;;;;;;;;;;;11.20;99.90;;;;;;5074539;28;19916;-64
2022/10/01 04:59:13;;;;;;;;;;;11.20;99.90;;;;;;5074633;28;19915;-64
2022/10/01 05:01:40;;;;;;;;;;;11.20;99.90;;;;;;5074641;28;19909;-64
2022/10/01 05:04:06;;;;;;;;;;;11.20;99.90;;;;;;5074800;28;19916;-64
2022/10/01 05:06:31;;;;;;;;;;;11.20;99.90;;;;;;5074499;28;20286;-64
2022/10/01 05:08:57;;;;;;;;;;;11.20;99.90;;;;;;5074686;28;19908;-64
2022/10/01 05:11:22;;;;;;;;;;;11.20;99.90;;;;;;5074365;28;19908;-64
2022/10/01 05:13:48;;;;;;;;;;;11.20;99.90;;;;;;5074624;28;19913;-64
2022/10/01 05:16:13;;;;;;;;;;;11.20;99.90;;;;;;5074126;28;20371;-64
2022/10/01 05:18:39;;;;;;;;;;;11.20;99.90;;;;;;5074539;28;19919;-64
2022/10/01 05:21:05;;;;;;;;;;;11.20;99.90;;;;;;5074488;28;19909;-64
2022/10/01 05:23:32;;;;;;;;;;;11.20;99.90;;;;;;5074170;28;20319;-64
2022/10/01 05:25:57;;;;;;;;;;;11.30;99.90;;;;;;5074390;28;19947;-64
2022/10/01 05:28:23;;;;;;;;;;;11.30;99.90;;;;;;5074312;28;19908;-64
2022/10/01 05:30:49;;;;;;;;;;;11.40;99.90;;;;;;5074292;28;19912;-64
2022/10/01 05:33:15;;;;;;;;;;;11.50;99.90;;;;;;5074248;28;19908;-64
2022/10/01 05:35:40;;;;;;;;;;;11.60;99.90;;;;;;5074149;28;19919;-64
2022/10/01 05:38:06;;;;;;;;;;;11.60;99.90;;;;;;5056149;28;19916;-64
2022/10/01 05:40:32;;;;;;;;;;;11.60;99.90;;;;;;5074187;28;20012;-64
2022/10/01 05:42:58;;;;;;;;;;;11.50;99.90;;;;;;5074127;28;19908;-64
2022/10/01 05:45:25;;;;;;;;;;;11.50;99.90;;;;;;5055988;28;19908;-64
2022/10/01 05:47:54;;;;;;;;;;;11.50;99.90;;;;;;5074078;28;20370;-64
2022/10/01 05:50:20;;;;;;;;;;;11.50;99.90;;;;;;5073563;28;20005;-64
2022/10/01 05:52:47;;;;;;;;;;;11.50;99.90;;;;;;5073765;28;19916;-64
2022/10/01 05:55:14;;;;;;;;;;;11.40;99.90;;;;;;5073908;28;19909;-65
2022/10/01 05:57:39;;;;;;;;;;;11.40;99.90;;;;;;5073678;28;19916;-64
2022/10/01 06:00:05;;;;;;;;;;;11.40;99.90;;;;;;5073677;28;19961;-64
2022/10/01 06:02:30;;;;;;;;;;;11.40;99.90;;;;;;5073608;28;20003;-64
2022/10/01 06:04:56;;;;;;;;;;;11.40;99.90;;;;;;5073600;28;19948;-64
2022/10/01 06:07:21;;;;;;;;;;;11.40;99.90;;;;;;5073842;28;19916;-64
2022/10/01 06:09:46;;;;;;;;;;;11.30;99.90;;;;;;5073848;28;20374;-64
2022/10/01 06:12:12;;;;;;;;;;;11.30;99.90;;;;;;5073651;28;20367;-64
2022/10/01 06:14:37;;;;;;;;;;;11.20;99.90;;;;;;5073508;28;19908;-65
2022/10/01 06:17:03;;;;;;;;;;;11.10;99.90;;;;;;5073241;28;19920;-64
2022/10/01 06:19:28;;;;;;;;;;;11.10;99.90;;;;;;5073703;28;19978;-64
2022/10/01 06:21:54;;;;;;;;;;;11.10;99.90;;;;;;5073482;28;20359;-64
2022/10/01 06:24:19;;;;;;;;;;;11.00;99.90;;;;;;5073394;28;19931;-64
2022/10/01 06:26:47;;;;;;;;;;;11.00;99.90;;;;;;5073359;28;19908;-65
2022/10/01 06:29:12;;;;;;;;;;;11.00;99.90;;;;;;5073303;28;19915;-65
2022/10/01 06:31:38;;;;;;;;;;;11.00;99.90;;;;;;5073357;28;20302;-65
2022/10/01 06:34:03;;;;;;;;;;;11.00;99.90;;;;;;5073527;28;19908;-65
2022/10/01 06:36:29;;;;;;;;;;;11.00;99.90;;;;;;5073450;28;19913;-64
2022/10/01 06:38:54;;;;;;;;;;;11.00;99.90;;;;;;5073563;28;19909;-65
2022/10/01 06:41:20;;;;;;;;;;;11.10;99.90;;;;;;5073470;28;19909;-65
2022/10/01 06:43:47;;;;;;;;;;;11.10;99.90;;;;;;5073137;28;19915;-64
2022/10/01 06:46:12;;;;;;;;;;;11.10;99.90;;;;;;5073230;28;19999;-65
2022/10/01 06:48:38;;;;;;;;;;;11.10;99.90;;;;;;5073171;28;19951;-65
2022/10/01 06:51:04;;;;;;;;;;;11.20;99.90;;;;;;5073383;28;19909;-64
2022/10/01 06:53:31;;;;;;;;;;;11.30;99.90;;;;;;5073065;28;19994;-64
2022/10/01 06:55:56;;;;;;;;;;;11.30;99.90;;;;;;5073265;28;20306;-64
2022/10/01 06:58:25;;;;;;;;;;;11.30;99.90;;;;;;5073352;28;19909;-65
2022/10/01 07:00:50;;;;;;;;;;;11.30;99.90;;;;;;5073365;28;20321;-65
2022/10/01 07:03:17;;;;;;;;;;;11.40;99.90;;;;;;5075175;28;19908;-65
2022/10/01 07:05:43;;;;;;;;;;;11.40;99.90;;;;;;5077099;28;20421;-65
2022/10/01 07:08:09;;;;;;;;;;;11.50;99.90;;;;;;5077082;28;19912;-65
2022/10/01 07:10:35;;;;;;;;;;;11.50;99.90;;;;;;5076702;28;19991;-66
2022/10/01 07:13:08;;;;;;;;;;;11.50;99.90;;;;;;5076638;28;19995;-65
2022/10/01 07:15:34;;;;;;;;;;;11.50;99.90;;;;;;5076564;28;20291;-65
2022/10/01 07:18:00;;;;;;;;;;;11.60;99.90;;;;;;5076757;28;19931;-65
2022/10/01 07:20:25;;;;;;;;;;;11.60;99.90;;;;;;5076506;28;20386;-65
2022/10/01 07:22:55;;;;;;;;;;;11.60;99.90;;;;;;5076474;28;19931;-65
2022/10/01 07:25:21;;;;;;;;;;;11.60;99.90;;;;;;5076708;28;20367;-65
2022/10/01 07:27:46;;;;;;;;;;;11.60;99.90;;;;;;5076365;28;19915;-64
2022/10/01 07:30:12;;;;;;;;;;;11.60;99.90;;;;;;5076619;28;19914;-65
2022/10/01 07:32:37;;;;;;;;;;;11.50;99.90;;;;;;5076510;28;19963;-65
2022/10/01 07:35:04;;;;;;;;;;;11.50;99.90;;;;;;5076517;28;19909;-65
2022/10/01 07:37:30;;;;;;;;;;;11.60;99.90;;;;;;5076407;28;19919;-65
2022/10/01 07:39:56;;;;;;;;;;;11.70;99.90;;;;;;5076168;28;19908;-65
2022/10/01 07:42:21;;;;;;;;;;;11.70;99.90;;;;;;5076390;28;19909;-65
2022/10/01 07:44:46;;;;;;;;;;;11.80;99.90;;;;;;5076063;28;19908;-65
2022/10/01 07:47:13;;;;;;;;;;;11.70;99.90;;;;;;5076307;28;19909;-65
2022/10/01 07:49:39;;;;;;;;;;;11.80;99.90;;;;;;5076213;28;19920;-65
2022/10/01 07:52:05;;;;;;;;;;;11.80;99.90;;;;;;5057958;28;19912;-65
2022/10/01 07:54:30;;;;;;;;;;;11.90;99.90;;;;;;5075891;28;19908;-65
2022/10/01 07:56:56;;;;;;;;;;;11.90;99.90;;;;;;5076081;28;20003;-65
2022/10/01 07:59:21;;;;;;;;;;;11.90;99.90;;;;;;5075864;28;19923;-65
2022/10/01 08:01:48;;;;;;;;;;;12.00;99.90;;;;;;5076033;28;19909;-65
2022/10/01 08:06:59;;;;;;;;;;;12.00;99.90;;;;;;5075465;28;19912;-65
2022/10/01 08:09:24;;;;;;;;;;;12.00;99.90;;;;;;5075601;28;19908;-65
2022/10/01 08:11:50;;;;;;;;;;;12.00;99.90;;;;;;5075565;28;19909;-65
2022/10/01 08:14:17;;;;;;;;;;;12.00;99.90;;;;;;5075623;28;19920;-65
2022/10/01 08:16:42;;;;;;;;;;;12.00;99.90;;;;;;5075305;28;20015;-66
2022/10/01 08:19:08;;;;;;;;;;;12.00;99.90;;;;;;5075458;28;19956;-65
2022/10/01 08:21:34;;;;;;;;;;;12.00;99.90;;;;;;5075611;28;19958;-65
2022/10/01 08:24:01;;;;;;;;;;;12.10;99.90;;;;;;5075619;28;19912;-65
2022/10/01 08:26:27;;;;;;;;;;;12.10;99.90;;;;;;5075289;28;20278;-66
2022/10/01 08:28:52;;;;;;;;;;;12.10;99.90;;;;;;5075532;28;19999;-65
2022/10/01 08:31:18;;;;;;;;;;;12.10;99.90;;;;;;5075233;28;19966;-65
2022/10/01 08:33:44;;;;;;;;;;;12.10;99.90;;;;;;5075396;28;20262;-65
2022/10/01 08:36:09;;;;;;;;;;;12.20;99.90;;;;;;5075273;28;20015;-65
2022/10/01 08:38:35;;;;;;;;;;;12.20;99.90;;;;;;5075343;28;19908;-65
2022/10/01 08:41:22;;;;;;;;;;;12.30;99.90;;;;;;5074979;28;20379;-65
2022/10/01 08:43:50;;;;;;;;;;;12.50;99.90;;;;;;5075198;28;19909;-65
2022/10/01 08:46:17;;;;;;;;;;;12.70;99.90;;;;;;5075073;28;19912;-65
2022/10/01 08:48:50;;;;;;;;;;;12.80;99.90;;;;;;5075092;28;19909;-65
2022/10/01 08:51:22;;;;;;;;;;;13.00;99.90;;;;;;5075030;28;20374;-65
2022/10/01 08:53:54;;;;;;;;;;;13.50;99.90;;;;;;5074726;28;20287;-65
2022/10/01 08:56:26;;;;;;;;;;;13.80;99.90;;;;;;5074560;28;19962;-65
2022/10/01 08:58:56;;;;;;;;;;;13.80;99.90;;;;;;5056683;28;19958;-65
2022/10/01 09:01:22;;;;;;;;;;;13.80;99.90;;;;;;5057270;28;19916;-65
2022/10/01 09:03:48;;;;;;;;;;;13.60;99.90;;;;;;5074786;28;19908;-65
2022/10/01 09:06:22;;;;;;;;;;;13.70;99.90;;;;;;5074719;28;19908;-65
2022/10/01 09:09:07;;;;;;;;;;;13.60;99.90;;;;;;5074716;28;20003;-65
2022/10/01 09:11:53;;;;;;;;;;;13.70;99.90;;;;;;5074291;28;19915;-65
2022/10/01 09:14:38;;;;;;;;;;;13.70;99.90;;;;;;5074225;28;19958;-65
2022/10/01 09:17:09;;;;;;;;;;;14.00;99.90;;;;;;5073850;28;19927;-65
2022/10/01 09:19:43;;;;;;;;;;;13.90;99.90;;;;;;5074222;28;19908;-65
2022/10/01 09:22:16;;;;;;;;;;;13.90;99.90;;;;;;5074158;28;19912;-65
2022/10/01 09:24:44;;;;;;;;;;;13.70;99.90;;;;;;5073918;28;19908;-65
2022/10/01 09:27:12;;;;;;;;;;;13.80;99.90;;;;;;5073966;28;19938;-65
2022/10/01 09:29:42;;;;;;;;;;;13.70;99.90;;;;;;5074079;28;19909;-65
2022/10/01 09:32:14;;;;;;;;;;;13.70;99.90;;;;;;5074299;28;19908;-65
2022/10/01 09:34:41;;;;;;;;;;;13.70;99.90;;;;;;5074259;28;19915;-66
2022/10/01 09:37:20;;;;;;;;;;;13.80;99.90;;;;;;5074172;28;19919;-65
2022/10/01 09:40:06;;;;;;;;;;;13.80;99.90;;;;;;5074196;28;20389;-66
2022/10/01 09:42:31;;;;;;;;;;;13.90;99.90;;;;;;5073772;28;19908;-66
2022/10/01 09:44:57;;;;;;;;;;;14.10;99.90;;;;;;5073841;28;19958;-66
2022/10/01 09:47:24;;;;;;;;;;;14.20;99.90;;;;;;5074062;28;19908;-68
2022/10/01 09:49:50;;;;;;;;;;;14.30;99.90;;;;;;5074055;28;19913;-66
2022/10/01 09:52:18;;;;;;;;;;;14.40;99.90;;;;;;5073897;28;19959;-65
2022/10/01 09:57:24;;;;;;;;;;;14.40;99.90;;;;;;5091165;27;19913;-65
2022/10/01 10:00:10;;;;;;;;;;;14.40;99.90;;;;;;5091090;28;19913;-65
2022/10/01 10:02:39;;;;;;;;;;;14.40;99.90;;;;;;5090990;28;19908;-65
2022/10/01 10:05:06;;;;;;;;;;;14.60;99.90;;;;;;5090946;28;19908;-65
2022/10/01 10:07:33;;;;;;;;;;;14.80;99.90;;;;;;5090988;28;19908;-66
2022/10/01 10:10:07;;;;;;;;;;;14.90;99.90;;;;;;5091149;28;19909;-65
2022/10/01 10:12:33;;;;;;;;;;;14.90;99.90;;;;;;5089625;28;19998;-65
2022/10/01 10:15:06;;;;;;;;;;;14.90;99.90;;;;;;5090949;28;19908;-65
2022/10/01 10:17:33;;;;;;;;;;;15.10;99.90;;;;;;5090694;28;19976;-65
2022/10/01 10:19:59;;;;;;;;;;;15.00;99.90;;;;;;5090691;28;19930;-65
2022/10/01 10:22:26;;;;;;;;;;;15.20;99.90;;;;;;5090613;28;19973;-65
2022/10/01 10:24:52;;;;;;;;;;;15.30;99.90;;;;;;5090638;28;19908;-65
2022/10/01 10:27:24;;;;;;;;;;;15.40;99.90;;;;;;5089405;28;19915;-65
2022/10/01 10:29:59;;;;;;;;;;;15.40;99.90;;;;;;5090832;28;19908;-65
2022/10/01 10:32:26;;;;;;;;;;;15.50;99.90;;;;;;5090529;28;20375;-65
2022/10/01 10:34:54;;;;;;;;;;;15.40;99.90;;;;;;5090414;28;20256;-65
2022/10/01 10:37:25;;;;;;;;;;;15.30;99.90;;;;;;5090603;28;20378;-65
2022/10/01 10:39:52;;;;;;;;;;;15.10;99.90;;;;;;5090437;28;19977;-65
2022/10/01 10:42:18;;;;;;;;;;;15.10;99.90;;;;;;5090515;28;19908;-65
2022/10/01 10:44:45;;;;;;;;;;;15.30;99.90;;;;;;5123122;28;19908;-65
2022/10/01 10:47:13;;;;;;;;;;;15.40;99.90;;;;;;5090345;28;19916;-65
2022/10/01 10:49:47;;;;;;;;;;;15.50;99.90;;;;;;5088620;28;20331;-65
2022/10/01 10:52:23;;;;;;;;;;;15.60;99.90;;;;;;5090051;28;19912;-66
2022/10/01 10:54:51;;;;;;;;;;;15.60;99.90;;;;;;5089872;28;19954;-65
2022/10/01 10:57:20;;;;;;;;;;;15.50;99.90;;;;;;5109957;28;19920;-65
2022/10/01 11:00:07;;;;;;;;;;;15.70;99.90;;;;;;5110070;28;19908;-65
2022/10/01 11:02:32;;;;;;;;;;;15.70;99.90;;;;;;5110092;28;19952;-65
2022/10/01 11:05:01;;;;;;;;;;;15.70;99.90;;;;;;5110242;28;20362;-65
2022/10/01 11:07:26;;;;;;;;;;;16.10;99.90;;;;;;5103754;28;19915;-65
2022/10/01 11:09:59;;;;;;;;;;;16.10;99.90;;;;;;5096479;28;20313;-65
2022/10/01 11:12:45;;;;;;;;;;;16.10;99.90;;;;;;5096526;28;19909;-65
2022/10/01 11:15:22;;;;;;;;;;;16.30;99.90;;;;;;5096369;28;20459;-65
2022/10/01 11:18:09;;;;;;;;;;;16.70;99.90;;;;;;5096443;28;19915;-65
2022/10/01 11:20:54;;;;;;;;;;;16.50;99.90;;;;;;5096273;28;19908;-65
2022/10/01 11:23:30;;;;;;;;;;;16.40;99.90;;;;;;5096274;28;19912;-65
2022/10/01 11:26:04;;;;;;;;;;;16.60;99.90;;;;;;5096502;28;19915;-64
2022/10/01 11:28:44;;;;;;;;;;;16.40;99.90;;;;;;5096481;28;19916;-65
2022/10/01 11:31:16;;;;;;;;;;;16.40;99.90;;;;;;5096436;28;19995;-65
2022/10/01 11:33:47;;;;;;;;;;;16.30;99.90;;;;;;5096157;28;19908;-65
2022/10/01 11:36:19;;;;;;;;;;;16.80;99.90;;;;;;5096025;28;20430;-65
2022/10/01 11:38:53;;;;;;;;;;;16.60;99.90;;;;;;5096320;28;19947;-65
2022/10/01 11:41:38;;;;;;;;;;;16.80;99.90;;;;;;5096278;28;19908;-65
2022/10/01 11:44:23;;;;;;;;;;;17.10;99.90;;;;;;5095832;28;20389;-65
2022/10/01 11:47:09;;;;;;;;;;;17.70;99.90;;;;;;5095762;28;19915;-65
2022/10/01 11:49:54;;;;;;;;;;;17.90;99.90;;;;;;5095623;28;20374;-65
2022/10/01 11:52:24;;;;;;;;;;;17.50;99.90;;;;;;5095604;28;20332;-65
2022/10/01 11:54:57;;;;;;;;;;;17.40;99.90;;;;;;5095968;28;19915;-65
2022/10/01 12:00:10;;;;;;;;;;;17.30;99.90;;;;;;5095400;28;19937;-64
2022/10/01 12:02:49;;;;;;;;;;;17.10;99.90;;;;;;5095856;28;19908;-64
2022/10/01 12:05:18;;;;;;;;;;;17.00;99.90;;;;;;5095506;28;19908;-64
2022/10/01 12:07:48;;;;;;;;;;;16.60;99.90;;;;;;5095473;28;19985;-64
2022/10/01 12:10:20;;;;;;;;;;;16.20;99.90;;;;;;5095714;28;20000;-64
2022/10/01 12:12:53;;;;;;;;;;;16.00;99.90;;;;;;5077730;28;19993;-65
2022/10/01 12:15:25;;;;;;;;;;;15.90;99.90;;;;;;5095359;28;19912;-64
2022/10/01 12:17:54;;;;;;;;;;;15.60;99.90;;;;;;5095277;28;20321;-65
2022/10/01 12:20:28;;;;;;;;;;;15.40;99.90;;;;;;5094246;28;19937;-65
2022/10/01 12:22:55;;;;;;;;;;;15.10;99.90;;;;;;5095387;28;20010;-64
2022/10/01 12:25:25;;;;;;;;;;;14.80;99.90;;;;;;5095373;28;19908;-65
2022/10/01 12:27:57;;;;;;;;;;;14.60;99.90;;;;;;5095294;28;20390;-64
2022/10/01 12:30:28;;;;;;;;;;;14.40;99.90;;;;;;5076963;28;19919;-65
2022/10/01 12:33:24;;;;;;;;;;;14.20;99.90;;;;;;5095221;28;20011;-65
2022/10/01 12:36:09;;;;;;;;;;;13.90;99.90;;;;;;5094845;28;20415;-64
2022/10/01 12:38:55;;;;;;;;;;;13.60;99.90;;;;;;5094712;28;19908;-64
2022/10/01 12:41:40;;;;;;;;;;;13.50;99.90;;;;;;5094705;28;19908;-64
2022/10/01 12:44:26;;;;;;;;;;;13.40;99.90;;;;;;5094649;28;20386;-64
2022/10/01 12:47:13;;;;;;;;;;;13.40;99.90;;;;;;5094600;28;19916;-64
2022/10/01 12:49:49;;;;;;;;;;;13.20;99.90;;;;;;5094660;28;20435;-64
2022/10/01 12:52:34;;;;;;;;;;;13.10;99.90;;;;;;5094888;28;19908;-64
2022/10/01 12:58:02;;;;;;;;;;;13.00;99.90;;;;;;5071030;28;19919;-65
2022/10/01 13:00:33;;;;;;;;;;;12.80;99.90;;;;;;5070948;28;20003;-65
2022/10/01 13:03:17;;;;;;;;;;;12.90;99.90;;;;;;5070829;28;20007;-65
2022/10/01 13:05:49;;;;;;;;;;;13.30;99.90;;;;;;5071135;28;19909;-65
2022/10/01 13:11:13;;;;;;;;;;;13.40;99.90;;;;;;5071106;28;20290;-64
2022/10/01 13:13:39;;;;;;;;;;;13.50;99.90;;;;;;5070906;28;19913;-65
2022/10/01 13:16:09;;;;;;;;;;;13.90;99.90;;;;;;5070872;28;19909;-65
2022/10/01 13:18:54;;;;;;;;;;;14.00;99.90;;;;;;5070804;28;19912;-64
2022/10/01 13:21:40;;;;;;;;;;;14.30;99.90;;;;;;5070716;28;19908;-64
2022/10/01 13:24:18;;;;;;;;;;;14.60;99.90;;;;;;5070643;28;19913;-64
2022/10/01 13:27:03;;;;;;;;;;;14.70;99.90;;;;;;5071056;28;19909;-64
2022/10/01 13:29:35;;;;;;;;;;;14.80;99.90;;;;;;5070589;28;20015;-64
2022/10/01 13:32:01;;;;;;;;;;;15.20;99.90;;;;;;5070803;28;19916;-64
2022/10/01 13:34:45;;;;;;;;;;;15.20;99.90;;;;;;5070508;28;19908;-65
2022/10/01 13:37:12;;;;;;;;;;;15.40;99.90;;;;;;5070742;28;19948;-64
2022/10/01 13:39:42;;;;;;;;;;;15.50;99.90;;;;;;5070665;28;20287;-64
2022/10/01 13:42:14;;;;;;;;;;;15.70;99.90;;;;;;5070333;28;19916;-64
2022/10/01 13:44:40;;;;;;;;;;;15.80;99.90;;;;;;5070632;28;19916;-64
2022/10/01 13:47:06;;;;;;;;;;;15.60;99.90;;;;;;5070272;28;20363;-64
2022/10/01 13:49:33;;;;;;;;;;;15.70;99.90;;;;;;5070171;28;19913;-64
2022/10/01 13:52:01;;;;;;;;;;;15.90;99.90;;;;;;5070401;28;19913;-64
2022/10/01 13:54:35;;;;;;;;;;;16.00;99.90;;;;;;5070025;28;19978;-65
2022/10/01 13:57:09;;;;;;;;;;;16.20;99.90;;;;;;5070338;28;20382;-64
2022/10/01 13:59:36;;;;;;;;;;;16.20;99.90;;;;;;5069996;28;19966;-64
2022/10/01 14:02:02;;;;;;;;;;;16.40;99.90;;;;;;5070214;28;19916;-64
2022/10/01 14:04:33;;;;;;;;;;;16.30;99.90;;;;;;5070098;28;19909;-65
2022/10/01 14:07:02;;;;;;;;;;;16.20;99.90;;;;;;5070074;28;19962;-64
2022/10/01 14:09:30;;;;;;;;;;;16.20;99.90;;;;;;5078256;28;19927;-65
2022/10/01 14:17:40;;;;;;;;;;;15.80;99.90;;;;;;5089699;28;20007;-65
2022/10/01 14:20:06;;;;;;;;;;;15.80;99.90;;;;;;5088710;28;19962;-65
2022/10/01 14:22:51;;;;;;;;;;;15.70;99.90;;;;;;5076282;28;19948;-65
2022/10/01 14:25:36;;;;;;;;;;;15.70;99.90;;;;;;5076219;28;20391;-65
2022/10/01 14:31:14;;;;;;;;;;;15.50;99.90;;;;;;5091285;27;19913;-65
2022/10/01 14:33:50;;;;;;;;;;;15.40;99.90;;;;;;5091182;28;19913;-65
2022/10/01 14:36:18;;;;;;;;;;;15.30;99.90;;;;;;5089892;28;19917;-65
2022/10/01 14:38:43;;;;;;;;;;;15.30;99.90;;;;;;5091329;28;20363;-65
2022/10/01 14:41:17;;;;;;;;;;;15.30;99.90;;;;;;5091270;28;19958;-65
2022/10/01 14:43:43;;;;;;;;;;;15.30;99.90;;;;;;5091183;28;19912;-65
2022/10/01 14:46:12;;;;;;;;;;;15.30;99.90;;;;;;5090906;28;19916;-65
2022/10/01 14:48:39;;;;;;;;;;;15.20;99.90;;;;;;5091046;28;19909;-65
2022/10/01 14:51:06;;;;;;;;;;;15.30;99.90;;;;;;5091109;28;19917;-65
2022/10/01 14:53:33;;;;;;;;;;;15.40;99.90;;;;;;5090811;28;19908;-65
2022/10/01 14:56:00;;;;;;;;;;;15.50;99.90;;;;;;5090696;28;19908;-65